Aérodrome :
LOGIN :

S'inscrire | Disclaimer

   EN    FR    IT 

 










Légende :    VFR   VFR Marginal   IFR   IFR Intensif   IFR Très Intensif
Visi : 
Plafond : 
>= 8 km
>= 3000ft
5 à 8 km
1000 à 3000 ft
1500m à 5 km
500 à 1000 ft
800 à 1500m
200 à 500 ft
< 800m
< 200 ft
Symboles :   Orages  Brouillard  Fortes neiges  Fortes précipitations  Vent > 20 kt
SIGMETs :   Divers  Orages  Givrage  Turbulence  Onde Orograph.  Cendres Volcan.







- Altitude de l'aérodrome : 74 ft
- Code IATA : LRH
- Voir les cartes d'approche


LFBH - La Rochelle Ile de Ré

DERNIER METAR :
  • 291100Z AUTO 10012KT 070V130 CAVOK 17/04 Q1012 NOSIG

METARs EXPIRÉS :
  • 291030Z AUTO 11014KT 080V140 CAVOK 16/03 Q1013 NOSIG
  • 291000Z AUTO 12014KT 090V150 CAVOK 15/04 Q1013 NOSIG
  • 290930Z AUTO 11015KT CAVOK 15/04 Q1014 NOSIG
  • 290900Z AUTO 12013KT CAVOK 14/05 Q1014 NOSIG
  • 290830Z AUTO 12012KT CAVOK 13/05 Q1014 NOSIG

TAF TAF LFBH
Valide du 29 à 06h jusqu'au 30 à 06h UTC


290500Z 2906/3006 12010KT CAVOK
TEMPO 3003/3006 -RA
ATIS : +33 5 46 00 13 92
Pas de NOTAMs connus pour ce terrain.



MET'MAP, la Météo Aéronautique d'un coup d'oeil ! - Copyright ORBIFLY Décembre 2007 - Disclaimer

ORBIFLY MET'MAP TEAM :

Programmation & Développement : Alexandra Zaïnal
Conception & Développement : Baudouin d'Aumeries
Co-Programmation & Développement : Marc-Olivier Méhu
Soutien technique & logistique : Manuel Goepfert

Contact : metmap@orbifly.com




SOURCES & CREDITS :

   NOAA